sensor_id;sensor_type;location;lat;lon;timestamp;P1;durP1;ratioP1;P2;durP2;ratioP2
22675;SDS011;12521;43.310;21.876;2024-03-02T00:37:02;10.0;;;9.0;;
22675;SDS011;12521;43.310;21.876;2024-03-02T00:41:42;10.0;;;9.0;;
22675;SDS011;12521;43.310;21.876;2024-03-02T00:46:20;10.0;;;9.0;;
22675;SDS011;12521;43.310;21.876;2024-03-02T00:50:57;10.0;;;9.0;;
22675;SDS011;12521;43.310;21.876;2024-03-02T00:55:37;10.0;;;9.0;;
22675;SDS011;12521;43.310;21.876;2024-03-02T01:00:17;10.0;;;9.0;;
22675;SDS011;12521;43.310;21.876;2024-03-02T01:04:53;10.0;;;9.0;;
22675;SDS011;12521;43.310;21.876;2024-03-02T02:18:39;9.0;;;7.0;;
22675;SDS011;12521;43.310;21.876;2024-03-02T02:23:15;9.0;;;7.0;;
22675;SDS011;12521;43.310;21.876;2024-03-02T02:27:53;9.0;;;7.0;;
22675;SDS011;12521;43.310;21.876;2024-03-02T02:32:29;9.0;;;7.0;;
22675;SDS011;12521;43.310;21.876;2024-03-02T02:37:06;9.0;;;7.0;;
22675;SDS011;12521;43.310;21.876;2024-03-02T02:41:42;9.0;;;7.0;;
22675;SDS011;12521;43.310;21.876;2024-03-02T03:00:16;8.0;;;7.0;;
22675;SDS011;12521;43.310;21.876;2024-03-02T03:04:53;8.0;;;7.0;;
22675;SDS011;12521;43.310;21.876;2024-03-02T03:09:29;8.0;;;7.0;;
22675;SDS011;12521;43.310;21.876;2024-03-02T03:14:05;8.0;;;7.0;;
22675;SDS011;12521;43.310;21.876;2024-03-02T03:18:42;8.0;;;6.0;;
22675;SDS011;12521;43.310;21.876;2024-03-02T03:23:18;8.0;;;6.0;;
22675;SDS011;12521;43.310;21.876;2024-03-02T03:27:54;7.0;;;6.0;;
22675;SDS011;12521;43.310;21.876;2024-03-02T03:32:30;7.0;;;6.0;;
22675;SDS011;12521;43.310;21.876;2024-03-02T03:37:06;7.0;;;6.0;;
22675;SDS011;12521;43.310;21.876;2024-03-02T03:41:42;7.0;;;6.0;;
22675;SDS011;12521;43.310;21.876;2024-03-02T03:46:18;7.0;;;5.0;;
22675;SDS011;12521;43.310;21.876;2024-03-02T03:50:54;7.0;;;5.0;;
22675;SDS011;12521;43.310;21.876;2024-03-02T03:55:31;7.0;;;5.0;;
22675;SDS011;12521;43.310;21.876;2024-03-02T04:00:10;7.0;;;5.0;;
22675;SDS011;12521;43.310;21.876;2024-03-02T04:04:48;7.0;;;5.0;;
22675;SDS011;12521;43.310;21.876;2024-03-02T05:00:07;6.0;;;5.0;;
22675;SDS011;12521;43.310;21.876;2024-03-02T05:04:44;6.0;;;5.0;;
22675;SDS011;12521;43.310;21.876;2024-03-02T05:09:20;6.0;;;5.0;;
22675;SDS011;12521;43.310;21.876;2024-03-02T05:13:56;6.0;;;5.0;;
22675;SDS011;12521;43.310;21.876;2024-03-02T05:18:32;6.0;;;5.0;;
22675;SDS011;12521;43.310;21.876;2024-03-02T05:23:08;6.0;;;5.0;;
22675;SDS011;12521;43.310;21.876;2024-03-02T05:59:59;7.0;;;6.0;;
22675;SDS011;12521;43.310;21.876;2024-03-02T06:04:35;7.0;;;6.0;;
22675;SDS011;12521;43.310;21.876;2024-03-02T06:09:12;7.0;;;6.0;;
22675;SDS011;12521;43.310;21.876;2024-03-02T06:13:48;7.0;;;6.0;;
22675;SDS011;12521;43.310;21.876;2024-03-02T06:18:24;7.0;;;6.0;;
22675;SDS011;12521;43.310;21.876;2024-03-02T06:23:00;7.0;;;6.0;;
22675;SDS011;12521;43.310;21.876;2024-03-02T06:59:50;8.0;;;7.0;;
22675;SDS011;12521;43.310;21.876;2024-03-02T07:04:26;8.0;;;7.0;;
22675;SDS011;12521;43.310;21.876;2024-03-02T07:09:03;8.0;;;7.0;;
22675;SDS011;12521;43.310;21.876;2024-03-02T07:13:39;8.0;;;7.0;;
22675;SDS011;12521;43.310;21.876;2024-03-02T07:18:16;9.0;;;7.0;;
22675;SDS011;12521;43.310;21.876;2024-03-02T07:22:52;9.0;;;7.0;;
22675;SDS011;12521;43.310;21.876;2024-03-02T07:27:31;10.0;;;7.0;;
22675;SDS011;12521;43.310;21.876;2024-03-02T07:32:10;10.0;;;7.0;;
22675;SDS011;12521;43.310;21.876;2024-03-02T07:36:46;10.0;;;7.0;;
22675;SDS011;12521;43.310;21.876;2024-03-02T07:41:23;10.0;;;7.0;;
22675;SDS011;12521;43.310;21.876;2024-03-02T07:46:00;10.0;;;7.0;;
22675;SDS011;12521;43.310;21.876;2024-03-02T08:18:15;19.0;;;15.0;;
22675;SDS011;12521;43.310;21.876;2024-03-02T08:22:52;19.0;;;15.0;;
22675;SDS011;12521;43.310;21.876;2024-03-02T08:27:30;19.0;;;15.0;;
22675;SDS011;12521;43.310;21.876;2024-03-02T08:32:07;19.0;;;15.0;;
22675;SDS011;12521;43.310;21.876;2024-03-02T08:36:44;19.0;;;15.0;;
22675;SDS011;12521;43.310;21.876;2024-03-02T08:41:21;19.0;;;15.0;;
22675;SDS011;12521;43.310;21.876;2024-03-02T08:45:58;19.0;;;15.0;;
22675;SDS011;12521;43.310;21.876;2024-03-02T08:59:46;20.0;;;16.0;;
22675;SDS011;12521;43.310;21.876;2024-03-02T09:04:22;20.0;;;16.0;;
22675;SDS011;12521;43.310;21.876;2024-03-02T09:08:58;20.0;;;16.0;;
22675;SDS011;12521;43.310;21.876;2024-03-02T09:13:36;20.0;;;16.0;;
22675;SDS011;12521;43.310;21.876;2024-03-02T09:18:12;20.0;;;16.0;;
22675;SDS011;12521;43.310;21.876;2024-03-02T09:22:49;20.0;;;16.0;;
22675;SDS011;12521;43.310;21.876;2024-03-02T10:18:13;8.0;;;7.0;;
22675;SDS011;12521;43.310;21.876;2024-03-02T10:22:49;8.0;;;7.0;;
22675;SDS011;12521;43.310;21.876;2024-03-02T10:27:28;8.0;;;7.0;;
22675;SDS011;12521;43.310;21.876;2024-03-02T10:32:09;8.0;;;7.0;;
22675;SDS011;12521;43.310;21.876;2024-03-02T10:36:47;8.0;;;7.0;;
22675;SDS011;12521;43.310;21.876;2024-03-02T10:41:29;8.0;;;7.0;;
22675;SDS011;12521;43.310;21.876;2024-03-02T10:46:16;9.0;;;7.0;;
22675;SDS011;12521;43.310;21.876;2024-03-02T10:50:56;9.0;;;7.0;;
22675;SDS011;12521;43.310;21.876;2024-03-02T10:55:32;9.0;;;7.0;;
22675;SDS011;12521;43.310;21.876;2024-03-02T11:00:14;10.0;;;8.0;;
22675;SDS011;12521;43.310;21.876;2024-03-02T11:05:00;10.0;;;8.0;;
22675;SDS011;12521;43.310;21.876;2024-03-02T11:10:01;11.0;;;10.0;;
22675;SDS011;12521;43.310;21.876;2024-03-02T11:14:42;11.0;;;10.0;;
22675;SDS011;12521;43.310;21.876;2024-03-02T11:19:20;11.0;;;10.0;;
22675;SDS011;12521;43.310;21.876;2024-03-02T11:23:57;11.0;;;10.0;;
22675;SDS011;12521;43.310;21.876;2024-03-02T13:19:59;19.0;;;14.0;;
22675;SDS011;12521;43.310;21.876;2024-03-02T13:24:35;19.0;;;14.0;;
22675;SDS011;12521;43.310;21.876;2024-03-02T13:29:12;19.0;;;14.0;;
22675;SDS011;12521;43.310;21.876;2024-03-02T13:33:48;19.0;;;14.0;;
22675;SDS011;12521;43.310;21.876;2024-03-02T13:38:25;19.0;;;14.0;;
22675;SDS011;12521;43.310;21.876;2024-03-02T13:43:03;19.0;;;14.0;;
22675;SDS011;12521;43.310;21.876;2024-03-02T13:56:52;22.0;;;15.0;;
22675;SDS011;12521;43.310;21.876;2024-03-02T14:01:29;22.0;;;15.0;;
22675;SDS011;12521;43.310;21.876;2024-03-02T14:06:05;22.0;;;15.0;;
22675;SDS011;12521;43.310;21.876;2024-03-02T14:10:42;22.0;;;15.0;;
22675;SDS011;12521;43.310;21.876;2024-03-02T14:15:18;22.0;;;15.0;;
22675;SDS011;12521;43.310;21.876;2024-03-02T14:19:54;22.0;;;15.0;;
22675;SDS011;12521;43.310;21.876;2024-03-02T14:24:30;22.0;;;15.0;;
22675;SDS011;12521;43.310;21.876;2024-03-02T15:38:06;40.0;;;27.0;;
22675;SDS011;12521;43.310;21.876;2024-03-02T15:42:43;40.0;;;27.0;;
22675;SDS011;12521;43.310;21.876;2024-03-02T15:47:19;40.0;;;27.0;;
22675;SDS011;12521;43.310;21.876;2024-03-02T15:51:55;40.0;;;27.0;;
22675;SDS011;12521;43.310;21.876;2024-03-02T15:56:31;40.0;;;27.0;;
22675;SDS011;12521;43.310;21.876;2024-03-02T16:01:08;40.0;;;27.0;;
22675;SDS011;12521;43.310;21.876;2024-03-02T16:05:44;40.0;;;27.0;;
22675;SDS011;12521;43.310;21.876;2024-03-02T17:00:57;32.0;;;25.0;;
22675;SDS011;12521;43.310;21.876;2024-03-02T17:05:33;32.0;;;25.0;;
22675;SDS011;12521;43.310;21.876;2024-03-02T17:10:11;32.0;;;25.0;;
22675;SDS011;12521;43.310;21.876;2024-03-02T17:14:47;32.0;;;25.0;;
22675;SDS011;12521;43.310;21.876;2024-03-02T17:19:23;41.0;;;30.0;;
22675;SDS011;12521;43.310;21.876;2024-03-02T17:24:00;41.0;;;30.0;;
22675;SDS011;12521;43.310;21.876;2024-03-02T17:28:36;50.0;;;34.0;;
22675;SDS011;12521;43.310;21.876;2024-03-02T17:33:12;50.0;;;34.0;;
22675;SDS011;12521;43.310;21.876;2024-03-02T17:37:49;50.0;;;34.0;;
22675;SDS011;12521;43.310;21.876;2024-03-02T17:42:25;50.0;;;34.0;;
22675;SDS011;12521;43.310;21.876;2024-03-02T18:19:20;24.0;;;21.0;;
22675;SDS011;12521;43.310;21.876;2024-03-02T18:23:56;24.0;;;21.0;;
22675;SDS011;12521;43.310;21.876;2024-03-02T18:28:33;24.0;;;21.0;;
22675;SDS011;12521;43.310;21.876;2024-03-02T18:33:09;24.0;;;21.0;;
22675;SDS011;12521;43.310;21.876;2024-03-02T18:37:45;26.0;;;20.0;;
22675;SDS011;12521;43.310;21.876;2024-03-02T18:42:21;26.0;;;20.0;;
22675;SDS011;12521;43.310;21.876;2024-03-02T18:46:58;27.0;;;20.0;;
22675;SDS011;12521;43.310;21.876;2024-03-02T18:51:34;27.0;;;20.0;;
22675;SDS011;12521;43.310;21.876;2024-03-02T18:56:10;27.0;;;20.0;;
22675;SDS011;12521;43.310;21.876;2024-03-02T19:00:47;26.0;;;18.0;;
22675;SDS011;12521;43.310;21.876;2024-03-02T19:05:23;26.0;;;18.0;;
22675;SDS011;12521;43.310;21.876;2024-03-02T19:10:00;24.0;;;17.0;;
22675;SDS011;12521;43.310;21.876;2024-03-02T19:14:37;24.0;;;17.0;;
22675;SDS011;12521;43.310;21.876;2024-03-02T19:19:14;24.0;;;17.0;;
22675;SDS011;12521;43.310;21.876;2024-03-02T19:23:50;24.0;;;17.0;;
22675;SDS011;12521;43.310;21.876;2024-03-02T19:37:39;24.0;;;18.0;;
22675;SDS011;12521;43.310;21.876;2024-03-02T19:42:15;24.0;;;18.0;;
22675;SDS011;12521;43.310;21.876;2024-03-02T19:46:52;24.0;;;18.0;;
22675;SDS011;12521;43.310;21.876;2024-03-02T19:51:28;24.0;;;18.0;;
22675;SDS011;12521;43.310;21.876;2024-03-02T19:56:05;24.0;;;18.0;;
22675;SDS011;12521;43.310;21.876;2024-03-02T20:00:42;24.0;;;18.0;;
22675;SDS011;12521;43.310;21.876;2024-03-02T20:05:18;24.0;;;18.0;;
22675;SDS011;12521;43.310;21.876;2024-03-02T20:09:54;23.0;;;18.0;;
22675;SDS011;12521;43.310;21.876;2024-03-02T20:14:30;23.0;;;18.0;;
22675;SDS011;12521;43.310;21.876;2024-03-02T20:19:06;23.0;;;18.0;;
22675;SDS011;12521;43.310;21.876;2024-03-02T20:23:42;23.0;;;18.0;;
22675;SDS011;12521;43.310;21.876;2024-03-02T21:37:28;39.0;;;29.0;;
22675;SDS011;12521;43.310;21.876;2024-03-02T21:42:04;39.0;;;29.0;;
22675;SDS011;12521;43.310;21.876;2024-03-02T21:46:41;39.0;;;29.0;;
22675;SDS011;12521;43.310;21.876;2024-03-02T21:51:18;39.0;;;29.0;;
22675;SDS011;12521;43.310;21.876;2024-03-02T21:55:54;39.0;;;29.0;;
22675;SDS011;12521;43.310;21.876;2024-03-02T22:00:31;39.0;;;29.0;;
22675;SDS011;12521;43.310;21.876;2024-03-02T22:05:08;39.0;;;29.0;;
22675;SDS011;12521;43.310;21.876;2024-03-02T23:00:34;28.0;;;19.0;;
22675;SDS011;12521;43.310;21.876;2024-03-02T23:05:11;28.0;;;19.0;;
22675;SDS011;12521;43.310;21.876;2024-03-02T23:09:48;28.0;;;19.0;;
22675;SDS011;12521;43.310;21.876;2024-03-02T23:14:24;28.0;;;19.0;;
22675;SDS011;12521;43.310;21.876;2024-03-02T23:19:01;28.0;;;19.0;;
22675;SDS011;12521;43.310;21.876;2024-03-02T23:23:38;28.0;;;19.0;;
